Time;durP1;ratioP1;P1;durP2;ratioP2;P2;SDS_P1;SDS_P2;PMS_P1;PMS_P2;Temp;Humidity;BMP_temperature;BMP_pressure;BME280_temperature;BME280_humidity;BME280_pressure;Samples;Min_cycle;Max_cycle;Signal;HPM_P1;HPM_P2
2023/08/20 00:02:38;;;;;;;13.40;5.15;;;;;;;22.94;51.68;93294.22;2075307;69;20457;-80
2023/08/20 00:05:06;;;;;;;16.85;5.05;;;;;;;22.99;50.42;93307.97;2068130;69;20195;-80
2023/08/20 00:07:32;;;;;;;9.35;4.68;;;;;;;22.81;50.22;93301.75;2071787;69;20152;-80
2023/08/20 00:10:04;;;;;;;8.70;5.18;;;;;;;22.63;51.25;93292.69;2071949;69;20585;-81
2023/08/20 00:12:31;;;;;;;8.25;5.00;;;;;;;22.82;51.58;93295.38;2071609;69;20629;-81
2023/08/20 00:15:04;;;;;;;12.48;4.95;;;;;;;22.72;53.69;93285.75;2072114;69;20513;-82
2023/08/20 00:17:36;;;;;;;13.27;5.13;;;;;;;22.90;52.83;93294.13;2071849;69;20176;-80
2023/08/20 00:20:10;;;;;;;11.25;5.75;;;;;;;22.13;53.63;93295.69;2071788;69;20231;-82
2023/08/20 00:22:37;;;;;;;14.70;5.30;;;;;;;22.60;51.62;93299.81;2071803;69;20152;-81
2023/08/20 00:25:20;;;;;;;11.10;5.70;;;;;;;22.72;51.77;93297.97;2071969;69;20232;-81
2023/08/20 00:27:45;;;;;;;;;;;;;;;22.69;53.12;93304.34;2071986;69;20144;-82
2023/08/20 00:30:11;;;;;;;8.02;4.75;;;;;;;22.70;52.97;93297.19;2070861;69;20048;-82
2023/08/20 00:32:37;;;;;;;9.93;5.38;;;;;;;22.63;50.93;93298.44;2071820;69;20164;-82
2023/08/20 00:35:04;;;;;;;15.65;5.30;;;;;;;22.56;52.78;93292.56;2071787;69;20167;-81
2023/08/20 00:37:30;;;;;;;9.65;5.18;;;;;;;22.55;52.83;93301.84;2071473;69;20223;-81
2023/08/20 00:39:57;;;;;;;11.50;5.05;;;;;;;22.54;52.38;93308.97;2068209;69;20144;-82
2023/08/20 00:42:25;;;;;;;8.55;5.22;;;;;;;22.49;53.16;93307.41;2071663;69;20224;-81
2023/08/20 00:44:53;;;;;;;12.02;5.15;;;;;;;22.46;53.41;93305.91;2071803;69;20238;-81
2023/08/20 00:47:20;;;;;;;13.27;5.20;;;;;;;22.40;55.30;93309.34;2071829;69;20128;-82
2023/08/20 00:49:47;;;;;;;14.60;5.18;;;;;;;22.40;54.81;93300.72;2071311;69;20140;-81
2023/08/20 00:52:16;;;;;;;13.98;5.28;;;;;;;22.41;54.45;93301.47;2071609;69;20617;-81
2023/08/20 00:54:48;;;;;;;10.68;5.60;;;;;;;22.32;54.42;93300.53;2071496;69;20263;-81
2023/08/20 00:57:17;;;;;;;8.07;4.95;;;;;;;22.20;55.51;93297.34;2071877;69;20186;-82
2023/08/20 00:59:44;;;;;;;12.95;5.05;;;;;;;22.12;55.25;93294.97;2071015;69;20228;-80
2023/08/20 01:02:10;;;;;;;12.10;5.05;;;;;;;22.17;55.68;93301.53;2071657;69;20618;-81
2023/08/20 01:04:36;;;;;;;10.82;4.72;;;;;;;22.25;55.61;93299.63;2073203;69;20582;-81
2023/08/20 01:07:08;;;;;;;10.05;5.03;;;;;;;22.18;54.72;93300.88;2074961;69;20144;-82
2023/08/20 01:09:36;;;;;;;11.23;5.15;;;;;;;22.12;55.65;93300.69;2074956;69;20573;-81
2023/08/20 01:12:06;;;;;;;10.57;5.18;;;;;;;22.12;55.62;93297.84;2074725;69;20205;-82
2023/08/20 01:14:32;;;;;;;10.73;5.32;;;;;;;22.06;54.84;93286.91;2071494;69;20140;-82
2023/08/20 01:16:59;;;;;;;12.50;5.20;;;;;;;22.09;54.95;93284.84;2068543;69;20147;-81
2023/08/20 01:19:25;;;;;;;13.65;5.00;;;;;;;22.21;53.58;93288.03;2075099;69;20143;-79
2023/08/20 01:22:09;;;;;;;7.55;5.47;;;;;;;22.15;52.73;93293.63;2071997;69;20266;-81
2023/08/20 01:25:08;;;;;;;12.20;5.63;;;;;;;22.01;53.97;93304.69;2074919;69;20132;-82
2023/08/20 01:27:52;;;;;;;8.65;5.25;;;;;;;22.02;53.77;93309.72;2071528;69;20533;-82
2023/08/20 01:30:21;;;;;;;10.20;5.38;;;;;;;21.70;56.00;93321.00;2074854;69;20299;-82
2023/08/20 01:32:51;;;;;;;10.70;5.38;;;;;;;21.70;55.44;93315.28;2071684;69;20140;-82
2023/08/20 01:35:17;;;;;;;9.00;5.30;;;;;;;21.78;55.52;93323.38;2074854;69;20625;-82
2023/08/20 01:37:43;;;;;;;12.02;5.72;;;;;;;21.75;55.59;93319.72;2071523;69;20144;-82
2023/08/20 01:40:10;;;;;;;12.43;5.57;;;;;;;21.61;55.65;93309.97;2074756;69;20148;-82
2023/08/20 01:42:37;;;;;;;8.88;5.63;;;;;;;21.03;57.41;93324.69;2071544;69;20242;-82
2023/08/20 01:45:04;;;;;;;10.70;5.78;;;;;;;21.27;58.27;93324.69;2071548;69;20235;-82
2023/08/20 01:47:30;;;;;;;11.02;5.93;;;;;;;21.28;57.98;93320.44;2071441;69;20174;-82
2023/08/20 01:49:55;;;;;;;12.70;5.68;;;;;;;21.38;56.50;93323.63;2071359;69;20589;-82
2023/08/20 01:52:21;;;;;;;10.30;5.25;;;;;;;21.49;56.57;93325.41;2071435;69;20152;-82
2023/08/20 01:54:48;;;;;;;8.02;5.00;;;;;;;21.41;57.06;93318.69;2074850;69;20144;-82
2023/08/20 01:57:14;;;;;;;13.05;5.95;;;;;;;21.49;56.55;93328.28;2074723;69;20163;-82
2023/08/20 01:59:40;;;;;;;10.60;6.00;;;;;;;21.41;57.14;93325.16;2075096;69;20172;-82
2023/08/20 02:02:06;;;;;;;13.10;5.55;;;;;;;21.42;56.93;93317.28;2071669;69;20244;-82
2023/08/20 02:04:32;;;;;;;10.38;5.53;;;;;;;21.39;57.31;93324.34;2070941;69;20148;-82
2023/08/20 02:06:58;;;;;;;12.63;5.85;;;;;;;21.19;58.16;93328.03;2070978;69;20144;-82
2023/08/20 02:09:24;;;;;;;9.75;5.47;;;;;;;21.05;58.97;93328.31;2070906;69;20144;-83
2023/08/20 02:11:50;;;;;;;8.18;5.07;;;;;;;21.09;59.19;93327.72;2071480;69;20256;-82
2023/08/20 02:14:16;;;;;;;10.90;5.75;;;;;;;21.24;58.38;93331.75;2071491;69;20155;-83
2023/08/20 02:16:42;;;;;;;11.68;5.57;;;;;;;21.15;58.95;93324.31;2070902;69;20137;-82
2023/08/20 02:19:08;;;;;;;13.02;5.90;;;;;;;21.08;58.96;93314.09;2071168;69;20136;-82
2023/08/20 02:21:33;;;;;;;12.57;6.28;;;;;;;21.10;59.20;93320.59;2071524;69;20152;-82
2023/08/20 02:23:59;;;;;;;12.73;6.22;;;;;;;21.04;59.38;93320.41;2070917;69;20225;-82
2023/08/20 02:26:25;;;;;;;9.23;5.78;;;;;;;20.94;59.17;93323.69;2071321;69;20525;-82
2023/08/20 02:28:50;;;;;;;11.55;5.72;;;;;;;20.96;59.42;93329.47;2071381;69;20203;-82
2023/08/20 02:31:16;;;;;;;16.13;5.95;;;;;;;20.94;59.69;93332.25;2071446;69;20167;-82
2023/08/20 02:33:42;;;;;;;11.30;6.07;;;;;;;20.60;60.18;93319.69;2071356;69;20133;-82
2023/08/20 02:36:12;;;;;;;10.65;5.97;;;;;;;20.81;59.89;93325.41;2071010;69;20168;-82
2023/08/20 02:38:38;;;;;;;15.80;5.97;;;;;;;20.83;59.83;93324.00;2070824;69;20148;-83
2023/08/20 02:41:04;;;;;;;12.55;5.80;;;;;;;20.60;60.41;93320.41;2070672;69;20155;-80
2023/08/20 02:43:30;;;;;;;13.15;6.03;;;;;;;20.74;60.37;93325.88;2071430;69;20179;-80
2023/08/20 02:45:55;;;;;;;11.07;6.20;;;;;;;20.62;61.54;93331.94;2071331;69;20144;-83
2023/08/20 02:48:21;;;;;;;11.25;6.53;;;;;;;20.52;60.86;93329.44;2070739;69;20180;-82
2023/08/20 02:50:47;;;;;;;13.85;6.78;;;;;;;20.45;61.40;93324.16;2071575;69;20151;-81
2023/08/20 02:53:12;;;;;;;10.43;6.00;;;;;;;20.57;61.08;93327.44;2071496;69;20202;-81
2023/08/20 02:55:38;;;;;;;15.48;5.97;;;;;;;20.52;61.59;93329.44;2071219;69;20148;-81
2023/08/20 02:58:04;;;;;;;11.93;5.95;;;;;;;20.56;60.75;93332.44;2071364;69;20616;-82
2023/08/20 03:00:30;;;;;;;15.27;6.32;;;;;;;20.47;60.43;93332.81;2070776;69;20583;-82
2023/08/20 03:02:56;;;;;;;13.13;6.22;;;;;;;20.34;61.12;93331.66;2067902;69;20140;-81
2023/08/20 03:05:22;;;;;;;18.13;6.70;;;;;;;20.24;60.74;93332.03;2070807;69;20157;-81
2023/08/20 03:07:49;;;;;;;11.68;6.57;;;;;;;20.36;61.08;93319.56;2070944;69;20248;-81
2023/08/20 03:10:14;;;;;;;11.35;5.78;;;;;;;20.40;60.91;93317.56;2071208;69;20156;-81
2023/08/20 03:12:40;;;;;;;16.77;6.28;;;;;;;20.44;60.15;93332.00;2071370;69;20257;-81
2023/08/20 03:15:07;;;;;;;10.30;5.85;;;;;;;20.46;60.22;93317.03;2070732;69;20160;-82
2023/08/20 03:17:32;;;;;;;7.93;5.63;;;;;;;20.43;60.78;93327.66;2071164;69;20155;-81
2023/08/20 03:19:59;;;;;;;12.38;6.20;;;;;;;20.10;62.36;93327.94;2071255;69;20152;-79
2023/08/20 03:22:27;;;;;;;10.07;5.40;;;;;;;20.28;61.37;93334.31;2070602;69;20632;-78
2023/08/20 03:24:53;;;;;;;11.68;6.07;;;;;;;20.49;59.30;93322.19;2071383;69;20136;-79
2023/08/20 03:27:20;;;;;;;13.52;6.20;;;;;;;20.35;59.54;93326.69;2071132;69;20228;-82
2023/08/20 03:29:46;;;;;;;16.52;6.40;;;;;;;19.96;61.45;93322.47;2070737;69;20514;-82
2023/08/20 03:32:12;;;;;;;12.00;6.28;;;;;;;20.25;60.77;93332.75;2068081;69;20713;-82
2023/08/20 03:34:38;;;;;;;11.50;6.15;;;;;;;20.36;60.30;93333.88;2070865;69;20192;-81
2023/08/20 03:37:04;;;;;;;13.13;5.85;;;;;;;20.22;61.08;93339.81;2071267;69;20182;-82
2023/08/20 03:39:31;;;;;;;15.52;6.00;;;;;;;19.96;61.25;93339.59;2070688;69;20156;-83
2023/08/20 03:41:57;;;;;;;14.73;6.15;;;;;;;20.00;61.46;93336.91;2071156;69;20148;-82
2023/08/20 03:44:23;;;;;;;12.43;6.03;;;;;;;19.92;60.97;93348.75;2070969;69;20276;-83
2023/08/20 03:46:49;;;;;;;13.23;6.18;;;;;;;20.09;60.60;93350.09;2070927;69;20181;-83
2023/08/20 03:49:15;;;;;;;9.93;5.70;;;;;;;20.14;60.68;93348.09;2070684;69;20486;-82
2023/08/20 03:51:42;;;;;;;13.40;5.65;;;;;;;20.27;60.44;93361.44;2071017;69;20151;-81
2023/08/20 03:54:09;;;;;;;11.57;5.82;;;;;;;19.85;60.76;93349.22;2070673;69;20164;-82
2023/08/20 03:56:34;;;;;;;10.05;5.97;;;;;;;19.99;60.51;93347.59;2070596;69;20155;-82
2023/08/20 03:59:00;;;;;;;11.95;5.88;;;;;;;20.17;60.52;93358.22;2070654;69;20581;-83
2023/08/20 04:01:26;;;;;;;9.43;5.85;;;;;;;20.09;60.37;93355.81;2070644;69;20137;-81
2023/08/20 04:03:51;;;;;;;10.93;5.80;;;;;;;20.04;60.96;93354.91;2071153;69;20147;-82
2023/08/20 04:06:17;;;;;;;11.27;5.88;;;;;;;20.02;61.34;93354.09;2070985;69;20594;-82
2023/08/20 04:08:43;;;;;;;8.73;6.05;;;;;;;20.03;59.88;93364.88;2074886;69;20520;-82
2023/08/20 04:11:08;;;;;;;10.55;5.95;;;;;;;20.07;60.89;93367.16;2074628;69;20132;-82
2023/08/20 04:13:34;;;;;;;10.60;5.72;;;;;;;19.95;60.87;93364.59;2075012;69;20246;-82
2023/08/20 04:16:00;;;;;;;8.23;5.82;;;;;;;20.03;61.04;93364.88;2068768;69;20152;-83
2023/08/20 04:18:26;;;;;;;12.13;5.63;;;;;;;19.82;61.57;93371.25;2074937;69;20614;-82
2023/08/20 04:20:54;;;;;;;12.13;6.07;;;;;;;19.92;60.99;93365.16;2071616;69;20236;-82
2023/08/20 04:23:20;;;;;;;14.77;5.95;;;;;;;19.86;62.43;93373.53;2074974;69;20182;-82
2023/08/20 04:25:46;;;;;;;17.23;6.13;;;;;;;19.86;61.66;93377.13;2071250;69;20179;-82
2023/08/20 04:28:14;;;;;;;13.65;5.93;;;;;;;19.85;62.50;93374.91;2071506;69;20151;-81
2023/08/20 04:30:40;;;;;;;15.32;5.88;;;;;;;19.95;61.96;93373.16;2074895;69;20156;-81
2023/08/20 04:33:06;;;;;;;11.70;5.78;;;;;;;19.85;61.36;93375.66;2074774;69;20568;-82
2023/08/20 04:35:33;;;;;;;11.05;5.82;;;;;;;19.99;61.17;93378.31;2071479;69;20132;-81
2023/08/20 04:37:59;;;;;;;12.13;5.70;;;;;;;20.02;61.04;93374.09;2071427;69;20241;-81
2023/08/20 04:40:26;;;;;;;10.70;5.57;;;;;;;20.04;61.09;93371.34;2071337;69;20148;-81
2023/08/20 04:42:52;;;;;;;12.20;6.07;;;;;;;20.06;61.81;93377.84;2074905;69;20143;-81
2023/08/20 04:45:19;;;;;;;10.02;5.63;;;;;;;20.09;59.65;93375.06;2071499;69;20242;-81
2023/08/20 04:47:46;;;;;;;9.45;6.47;;;;;;;19.75;60.69;93381.00;2068627;69;20163;-82
2023/08/20 04:50:15;;;;;;;11.32;5.63;;;;;;;20.00;60.56;93379.75;2071792;69;20629;-81
2023/08/20 04:52:41;;;;;;;16.13;5.75;;;;;;;20.07;58.55;93384.31;2072036;69;20160;-81
2023/08/20 04:55:08;;;;;;;11.05;5.38;;;;;;;20.18;57.96;93380.41;2071892;69;20585;-80
2023/08/20 04:57:34;;;;;;;10.23;5.45;;;;;;;20.37;57.67;93384.66;2071789;69;20239;-81
2023/08/20 05:00:01;;;;;;;9.18;5.00;;;;;;;20.49;57.44;93379.41;2071949;69;20170;-81
2023/08/20 05:02:53;;;;;;;14.65;5.25;;;;;;;20.49;59.11;93390.13;2074708;69;20155;-81
2023/08/20 05:05:20;;;;;;;10.85;6.72;;;;;;;20.25;59.74;93387.06;2069115;69;20625;-81
2023/08/20 05:07:48;;;;;;;15.90;8.25;;;;;;;20.25;59.00;93379.25;2071885;69;20140;-82
2023/08/20 05:10:14;;;;;;;13.13;6.00;;;;;;;20.47;59.41;93385.03;2071710;69;20135;-82
2023/08/20 05:12:39;;;;;;;8.15;4.95;;;;;;;20.65;58.31;93393.53;2072127;69;20140;-82
2023/08/20 05:15:05;;;;;;;14.93;8.25;;;;;;;20.38;59.09;93397.56;2071888;69;20170;-82
2023/08/20 05:17:31;;;;;;;13.27;7.90;;;;;;;20.66;58.02;93400.69;2075455;69;20159;-82
2023/08/20 05:19:57;;;;;;;17.00;8.90;;;;;;;20.63;58.89;93399.19;2071761;69;20171;-81
2023/08/20 05:22:22;;;;;;;8.60;5.70;;;;;;;20.69;56.78;93393.66;2071807;69;20595;-80
2023/08/20 05:24:48;;;;;;;11.85;5.35;;;;;;;20.74;57.46;93386.69;2071762;69;20594;-82
2023/08/20 05:27:17;;;;;;;12.05;5.40;;;;;;;20.64;56.84;93400.63;2071751;69;20148;-82
2023/08/20 05:29:45;;;;;;;10.65;4.90;;;;;;;21.04;55.66;93403.41;2071871;69;20144;-82
2023/08/20 05:32:11;;;;;;;9.75;5.30;;;;;;;21.05;55.18;93402.00;2071770;69;20606;-81
2023/08/20 05:34:37;;;;;;;15.57;6.30;;;;;;;21.09;56.46;93402.16;2071848;69;20136;-82
2023/08/20 05:37:03;;;;;;;14.60;6.22;;;;;;;21.06;56.80;93400.59;2071839;69;20471;-82
2023/08/20 05:39:43;;;;;;;12.27;5.90;;;;;;;21.22;55.95;93397.56;2071851;69;20231;-81
2023/08/20 05:42:09;;;;;;;11.20;5.72;;;;;;;21.35;57.63;93404.41;2071686;69;20144;-82
2023/08/20 05:44:39;;;;;;;9.10;5.43;;;;;;;21.36;56.23;93400.91;2071830;69;20317;-82
2023/08/20 05:47:08;;;;;;;8.32;4.95;;;;;;;21.49;56.58;93404.88;2071792;69;20740;-81
2023/08/20 05:49:34;;;;;;;11.05;5.05;;;;;;;21.47;56.83;93404.81;2071709;69;20171;-82
2023/08/20 05:52:00;;;;;;;7.60;4.78;;;;;;;21.68;57.56;93403.31;2071881;69;20148;-82
2023/08/20 05:54:27;;;;;;;8.40;4.97;;;;;;;21.88;55.26;93406.78;2071927;69;20148;-79
2023/08/20 05:56:54;;;;;;;12.13;6.65;;;;;;;21.85;57.04;93413.84;2071756;69;20148;-83
2023/08/20 05:59:20;;;;;;;10.98;6.07;;;;;;;21.77;57.87;93414.34;2075313;69;20267;-82
2023/08/20 06:01:46;;;;;;;8.43;6.07;;;;;;;22.01;56.14;93413.63;2071699;69;20197;-81
2023/08/20 06:04:12;;;;;;;8.88;5.30;;;;;;;22.09;57.23;93411.00;2075199;69;20140;-82
2023/08/20 06:06:37;;;;;;;13.00;5.65;;;;;;;22.23;56.43;93407.81;2075209;69;20201;-83
2023/08/20 06:09:03;;;;;;;8.77;5.90;;;;;;;22.29;57.31;93411.59;2075188;69;20153;-83
2023/08/20 06:11:28;;;;;;;12.25;5.75;;;;;;;22.39;57.44;93408.28;2075179;69;20207;-83
2023/08/20 06:13:54;;;;;;;9.32;5.45;;;;;;;22.46;56.72;93415.66;2075239;69;20567;-83
2023/08/20 06:16:20;;;;;;;11.55;5.47;;;;;;;22.47;57.44;93419.25;2075366;69;20160;-83
2023/08/20 06:18:45;;;;;;;9.60;5.60;;;;;;;22.36;57.10;93411.75;2075235;69;20136;-82
2023/08/20 06:21:11;;;;;;;10.50;5.90;;;;;;;22.23;56.11;93407.81;2075225;69;20605;-82
2023/08/20 06:23:36;;;;;;;13.57;5.88;;;;;;;22.49;56.31;93402.09;2075211;69;20136;-83
2023/08/20 06:26:02;;;;;;;14.73;5.50;;;;;;;22.49;55.27;93399.94;2075207;69;20140;-82
2023/08/20 06:28:28;;;;;;;12.25;4.88;;;;;;;22.63;56.03;93396.00;2075261;69;20502;-82
2023/08/20 06:30:53;;;;;;;11.40;5.22;;;;;;;22.63;56.14;93393.84;2075276;69;20143;-82
2023/08/20 06:33:19;;;;;;;11.95;5.15;;;;;;;22.60;55.17;93389.50;2072421;69;20135;-82
2023/08/20 06:35:44;;;;;;;11.80;4.80;;;;;;;22.47;55.75;93379.09;2074402;69;20147;-82
2023/08/20 06:38:10;;;;;;;10.35;4.78;;;;;;;22.28;56.23;93387.19;2075332;69;20163;-82
2023/08/20 06:40:35;;;;;;;10.45;4.72;;;;;;;22.52;55.87;93392.13;2075325;69;20581;-87
2023/08/20 06:43:01;;;;;;;8.00;4.70;;;;;;;22.37;55.52;93393.88;2074916;69;20155;-84
2023/08/20 06:45:26;;;;;;;7.28;4.53;;;;;;;22.60;54.21;93398.09;2073283;69;20144;-86
2023/08/20 06:47:52;;;;;;;8.68;4.53;;;;;;;22.56;56.11;93409.47;2075108;69;20512;-82
2023/08/20 06:50:18;;;;;;;8.30;4.65;;;;;;;22.69;57.26;93401.91;2076653;69;20159;-84
2023/08/20 06:52:43;;;;;;;14.75;4.75;;;;;;;22.80;57.33;93398.63;2076680;69;20173;-85
2023/08/20 06:55:10;;;;;;;8.75;5.28;;;;;;;22.80;55.20;93392.88;2073353;69;20140;-84
2023/08/20 06:57:36;;;;;;;7.80;4.70;;;;;;;23.11;55.73;93402.31;2075897;69;20152;-84
2023/08/20 07:00:04;;;;;;;11.68;4.88;;;;;;;23.37;54.12;93396.50;2078125;69;20310;-81
2023/08/20 07:02:30;;;;;;;9.52;4.75;;;;;;;23.67;54.49;93399.38;2078543;69;20182;-82
2023/08/20 07:04:55;;;;;;;6.90;4.43;;;;;;;23.82;53.92;93403.28;2078422;69;20183;-85
2023/08/20 07:07:22;;;;;;;11.82;4.40;;;;;;;24.10;53.46;93400.34;2075358;69;20276;-86
2023/08/20 07:09:47;;;;;;;9.90;4.80;;;;;;;24.24;52.91;93397.75;2076897;69;20220;-93
2023/08/20 07:12:13;;;;;;;12.32;4.55;;;;;;;24.45;53.10;93398.19;2079789;69;20597;-89
2023/08/20 07:14:38;;;;;;;8.85;4.70;;;;;;;24.73;52.73;93404.50;2080706;69;20227;-90
2023/08/20 07:17:05;;;;;;;7.78;4.18;;;;;;;24.99;52.10;93398.50;2079736;69;20230;-93
2023/08/20 07:19:30;;;;;;;13.35;4.97;;;;;;;24.77;48.92;93398.09;2080179;69;20151;-92
2023/08/20 07:21:56;;;;;;;13.93;5.15;;;;;;;25.11;50.56;93395.16;2079756;69;20536;-93
2023/08/20 07:24:29;;;;;;;11.80;5.28;;;;;;;25.49;51.52;93402.97;2082428;69;20601;-87
2023/08/20 07:27:00;;;;;;;8.15;4.45;;;;;;;25.71;51.58;93399.72;2080913;69;20151;-91
2023/08/20 07:29:29;;;;;;;9.43;4.72;;;;;;;25.89;50.39;93397.13;2078900;69;20144;-85
2023/08/20 07:31:56;;;;;;;8.80;4.65;;;;;;;26.10;50.62;93390.19;2078553;69;20139;-87
2023/08/20 07:34:21;;;;;;;7.88;4.78;;;;;;;26.28;51.03;93389.00;2075197;69;20179;-86
2023/08/20 07:36:47;;;;;;;7.63;4.90;;;;;;;26.50;50.14;93400.84;2078574;69;20138;-85
2023/08/20 07:39:14;;;;;;;10.48;4.75;;;;;;;26.66;48.65;93390.91;2078464;69;20132;-88
2023/08/20 07:41:40;;;;;;;7.53;4.40;;;;;;;26.86;48.83;93388.25;2078281;69;20127;-89
2023/08/20 07:44:06;;;;;;;7.88;4.78;;;;;;;27.07;48.81;93383.41;2079365;69;20608;-86
2023/08/20 07:46:32;;;;;;;6.85;4.35;;;;;;;27.26;48.06;93390.84;2078443;69;20155;-88
2023/08/20 07:48:57;;;;;;;9.02;4.55;;;;;;;27.35;48.22;93392.38;2078484;69;20140;-86
2023/08/20 07:51:23;;;;;;;8.75;4.45;;;;;;;27.70;48.37;93386.13;2078428;69;20147;-88
2023/08/20 07:53:48;;;;;;;10.15;4.80;;;;;;;27.99;46.77;93402.28;2079405;69;20155;-89
2023/08/20 07:56:14;;;;;;;9.07;4.30;;;;;;;28.11;45.49;93390.06;2075788;69;20139;-86
2023/08/20 07:58:39;;;;;;;8.35;4.45;;;;;;;28.03;41.43;93399.41;2078571;69;20601;-86
2023/08/20 08:01:05;;;;;;;8.43;4.47;;;;;;;27.87;43.36;93390.63;2078537;69;20143;-87
2023/08/20 08:03:31;;;;;;;9.57;4.30;;;;;;;28.04;43.19;93392.19;2078432;69;20178;-87
2023/08/20 08:05:56;;;;;;;9.52;4.63;;;;;;;27.92;42.76;93391.38;2078423;69;20150;-81
2023/08/20 08:08:22;;;;;;;10.57;4.55;;;;;;;28.54;42.52;93390.28;2078335;69;20147;-82
2023/08/20 08:10:48;;;;;;;12.20;4.60;;;;;;;29.07;42.09;93405.00;2078211;69;20593;-82
2023/08/20 08:13:23;;;;;;;7.82;4.60;;;;;;;29.03;38.93;93390.47;2078390;69;20264;-85
2023/08/20 08:15:50;;;;;;;9.90;5.05;;;;;;;28.82;40.56;93387.50;2078347;69;20536;-83
2023/08/20 08:18:15;;;;;;;8.50;4.65;;;;;;;29.37;39.09;93399.25;2075528;69;20132;-84
2023/08/20 08:20:41;;;;;;;10.73;4.30;;;;;;;29.67;39.46;93392.03;2075035;69;20241;-85
2023/08/20 08:23:07;;;;;;;13.35;4.65;;;;;;;29.65;39.44;93405.81;2075089;69;20181;-89
2023/08/20 08:25:32;;;;;;;9.23;4.75;;;;;;;29.95;38.20;93400.00;2075379;69;20142;-82
2023/08/20 08:27:58;;;;;;;8.15;4.50;;;;;;;29.87;37.81;93397.84;2075422;69;20692;-84
2023/08/20 08:30:24;;;;;;;9.70;4.97;;;;;;;29.90;37.32;93406.53;2075629;69;20155;-83
2023/08/20 08:32:49;;;;;;;11.50;4.50;;;;;;;30.09;37.31;93399.25;2075515;69;20129;-86
2023/08/20 08:35:15;;;;;;;9.15;4.60;;;;;;;30.13;36.77;93402.16;2075556;69;20144;-82
2023/08/20 08:37:40;;;;;;;8.10;4.40;;;;;;;30.45;36.55;93397.75;2075449;69;20590;-85
2023/08/20 08:40:07;;;;;;;5.55;4.22;;;;;;;30.81;35.45;93397.63;2075431;69;20259;-86
2023/08/20 08:42:33;;;;;;;7.30;4.40;;;;;;;30.45;34.94;93394.84;2075599;69;20521;-86
2023/08/20 08:45:03;;;;;;;6.88;4.25;;;;;;;31.01;35.30;93381.53;2075499;69;20152;-82
2023/08/20 08:47:29;;;;;;;8.13;4.30;;;;;;;31.09;34.96;93388.03;2075451;69;20146;-83
2023/08/20 08:49:56;;;;;;;7.55;4.22;;;;;;;31.07;35.39;93390.97;2075391;69;20593;-85
2023/08/20 08:52:26;;;;;;;8.82;4.38;;;;;;;31.14;34.37;93383.63;2075408;69;20596;-83
2023/08/20 08:54:52;;;;;;;6.72;4.28;;;;;;;31.45;35.45;93385.66;2075524;69;20163;-84
2023/08/20 08:57:18;;;;;;;12.00;4.70;;;;;;;32.52;33.91;93381.06;2075223;69;20143;-85
2023/08/20 08:59:44;;;;;;;5.90;4.50;;;;;;;32.48;33.42;93380.41;2075423;69;20140;-86
2023/08/20 09:02:12;;;;;;;9.43;4.55;;;;;;;32.64;33.87;93372.19;2075688;69;20139;-84
2023/08/20 09:04:39;;;;;;;10.50;4.57;;;;;;;32.92;33.07;93370.41;2075656;69;20143;-85
2023/08/20 09:07:04;;;;;;;11.45;4.70;;;;;;;33.08;33.64;93372.38;2075412;69;20144;-85
2023/08/20 09:09:31;;;;;;;10.23;4.78;;;;;;;33.51;33.63;93371.81;2075504;69;20154;-82
2023/08/20 09:11:56;;;;;;;11.15;4.35;;;;;;;32.97;33.79;93365.97;2075283;69;20634;-82
2023/08/20 09:14:29;;;;;;;9.52;4.60;;;;;;;33.25;34.06;93369.97;2075338;69;20637;-82
2023/08/20 09:16:59;;;;;;;6.65;4.30;;;;;;;33.92;32.54;93360.19;2072012;69;20243;-82
2023/08/20 09:19:30;;;;;;;8.05;4.30;;;;;;;34.52;31.77;93365.72;2075399;69;20144;-82
2023/08/20 09:21:58;;;;;;;8.48;4.22;;;;;;;34.17;31.21;93366.34;2075421;69;20183;-82
2023/08/20 09:24:39;;;;;;;6.68;3.97;;;;;;;34.07;31.68;93361.41;2072104;69;20152;-83
2023/08/20 09:27:05;;;;;;;7.22;3.97;;;;;;;34.55;31.77;93367.88;2075260;69;20128;-82
2023/08/20 09:29:48;;;;;;;9.18;4.22;;;;;;;34.54;29.49;93363.47;2075285;69;20183;-82
2023/08/20 09:32:20;;;;;;;9.10;4.55;;;;;;;33.99;30.60;93363.75;2075384;69;20220;-82
2023/08/20 09:34:48;;;;;;;6.22;4.00;;;;;;;35.05;31.89;93358.81;2075260;69;20206;-82
2023/08/20 09:37:15;;;;;;;8.32;4.55;;;;;;;34.54;30.57;93365.69;2075335;69;20139;-82
2023/08/20 09:39:41;;;;;;;11.73;4.40;;;;;;;34.29;30.96;93362.50;2075283;69;20170;-81
2023/08/20 09:42:08;;;;;;;6.72;4.20;;;;;;;34.29;31.14;93359.56;2075120;69;20596;-82
2023/08/20 09:44:39;;;;;;;8.98;4.15;;;;;;;34.23;30.27;93363.31;2075224;69;20205;-82
2023/08/20 09:47:12;;;;;;;6.25;3.90;;;;;;;34.47;30.40;93359.25;2075290;69;20153;-82
2023/08/20 09:49:41;;;;;;;8.18;4.10;;;;;;;34.88;29.58;93361.34;2075298;69;20147;-82
2023/08/20 09:52:11;;;;;;;6.65;4.82;;;;;;;35.24;29.09;93359.16;2075286;69;20582;-82
2023/08/20 09:54:50;;;;;;;7.07;4.05;;;;;;;35.16;27.77;93362.25;2075290;69;20158;-81
2023/08/20 09:57:33;;;;;;;5.88;3.85;;;;;;;35.79;29.87;93370.31;2075082;69;20593;-82
2023/08/20 10:00:00;;;;;;;11.55;4.13;;;;;;;34.94;27.88;93358.28;2075347;69;20155;-81
2023/08/20 10:02:26;;;;;;;5.57;3.50;;;;;;;35.13;26.85;93352.78;2075291;69;20131;-82
2023/08/20 10:04:52;;;;;;;8.23;3.53;;;;;;;35.82;25.55;93353.41;2075163;69;20183;-81
2023/08/20 10:07:18;;;;;;;6.82;3.35;;;;;;;36.68;27.46;93351.94;2075220;69;20127;-82
2023/08/20 10:09:45;;;;;;;8.75;3.80;;;;;;;36.17;26.14;93349.63;2075224;69;20529;-82
2023/08/20 10:12:14;;;;;;;12.10;3.97;;;;;;;37.30;26.91;93347.97;2075185;69;20241;-81
2023/08/20 10:14:41;;;;;;;6.63;3.72;;;;;;;37.85;26.54;93352.16;2075230;69;20239;-82
2023/08/20 10:17:11;;;;;;;6.75;3.92;;;;;;;37.78;26.00;93339.13;2075248;69;20156;-83
2023/08/20 10:19:38;;;;;;;9.13;4.07;;;;;;;37.21;26.19;93341.63;2075211;69;20591;-84
2023/08/20 10:22:06;;;;;;;8.68;3.97;;;;;;;36.66;27.42;93339.56;2075252;69;20153;-82
2023/08/20 10:24:47;;;;;;;8.73;4.40;;;;;;;38.13;25.90;93345.31;2075311;69;20167;-84
2023/08/20 10:27:28;;;;;;;6.65;4.07;;;;;;;37.76;25.21;93336.25;2071756;69;20136;-83
2023/08/20 10:29:54;;;;;;;9.35;3.88;;;;;;;37.46;25.52;93335.72;2075186;69;20124;-84
2023/08/20 10:32:40;;;;;;;8.05;4.07;;;;;;;38.31;25.96;93335.19;2075180;69;20589;-84
2023/08/20 10:35:08;;;;;;;8.75;4.25;;;;;;;39.42;24.07;93340.69;2075179;69;20240;-83
2023/08/20 10:37:34;;;;;;;7.28;4.18;;;;;;;39.02;24.31;93331.19;2075339;69;20565;-84
2023/08/20 10:39:59;;;;;;;11.30;4.40;;;;;;;41.59;23.61;93341.72;2075096;69;20160;-84
2023/08/20 10:42:28;;;;;;;6.72;4.13;;;;;;;42.22;21.41;93334.31;2075201;69;20144;-85
2023/08/20 10:45:03;;;;;;;6.70;4.22;;;;;;;42.68;21.52;93337.13;2075154;69;20143;-85
2023/08/20 10:47:44;;;;;;;6.82;4.40;;;;;;;42.06;21.97;93336.53;2075140;69;20586;-84
2023/08/20 10:50:11;;;;;;;7.10;4.43;;;;;;;44.00;20.55;93328.53;2075233;69;20583;-83
2023/08/20 10:52:41;;;;;;;6.75;4.32;;;;;;;43.83;20.07;93334.69;2075183;69;20154;-82
2023/08/20 10:55:11;;;;;;;7.15;4.20;;;;;;;43.53;20.76;93328.19;2075046;69;20670;-84
2023/08/20 10:57:36;;;;;;;7.10;4.20;;;;;;;44.10;20.46;93325.69;2075120;69;20179;-85
2023/08/20 11:00:10;;;;;;;8.07;3.90;;;;;;;46.16;19.25;93336.13;2075151;69;20689;-85
2023/08/20 11:02:37;;;;;;;7.03;4.20;;;;;;;43.02;20.71;93316.09;2075210;69;20172;-83
2023/08/20 11:05:04;;;;;;;7.55;3.75;;;;;;;44.17;20.27;93317.13;2075116;69;20148;-84
2023/08/20 11:07:31;;;;;;;5.18;3.50;;;;;;;45.81;18.12;93326.44;2075128;69;20227;-80
2023/08/20 11:09:58;;;;;;;5.90;3.45;;;;;;;47.27;17.54;93318.13;2075196;69;20136;-85
2023/08/20 11:12:23;;;;;;;7.90;2.95;;;;;;;45.43;16.17;93311.78;2075139;69;20201;-81
2023/08/20 11:14:49;;;;;;;5.13;2.78;;;;;;;46.60;17.39;93317.53;2075104;69;20152;-79
2023/08/20 11:17:15;;;;;;;5.88;2.75;;;;;;;47.84;16.00;93308.09;2075094;69;20148;-80
2023/08/20 11:19:40;;;;;;;5.20;2.60;;;;;;;45.93;16.48;93309.38;2075110;69;20140;-81
2023/08/20 11:22:06;;;;;;;7.40;2.63;;;;;;;47.09;16.04;93305.22;2075064;69;20156;-79
2023/08/20 11:24:32;;;;;;;4.43;2.40;;;;;;;47.67;15.76;93307.16;2075099;69;20689;-81
2023/08/20 11:26:58;;;;;;;4.80;2.30;;;;;;;47.81;15.15;93306.13;2074998;69;20140;-79
2023/08/20 11:29:25;;;;;;;5.97;2.53;;;;;;;48.05;14.81;93301.34;2075160;69;20144;-79
2023/08/20 11:31:52;;;;;;;6.10;2.03;;;;;;;49.65;14.59;93295.78;2075071;69;20152;-79